KCNM/CNM METAR and TAF weather

Enter ICAO airport designator
Station Type Date Time Source
KCNM METAR 2021/05/10 01:53 UTC NOAA

KCNM 100153Z AUTO 22010KT 10SM CLR 27/M08 A2981 RMK AO2 SLP042 T02671083


Station Type Date Time Source
KCNM Decoded METAR 2021/05/10 01:53 UTC NOAA

CARLSBAD CAVERN CITY, NM, United States (KCNM) 32-20N 104-16W 985M
May 09, 2021 - 09:53 PM EDT / 2021.05.10 0153 UTC
Wind: from the SW (220 degrees) at 12 MPH (10 KT):0
Visibility: 10 mile(s):0
Sky conditions: clear
Temperature: 80.1 F (26.7 C)
Dew Point: 17.1 F (-8.3 C)
Relative Humidity: 9%
Pressure (altimeter): 29.81 in. Hg (1009 hPa)
ob: KCNM 100153Z AUTO 22010KT 10SM CLR 27/M08 A2981 RMK AO2 SLP042 T02671083
cycle: 2

Station Type Date Time Source
KCNM TAF 2021/05/09 18:51 UTC NOAA

TAF KCNM 091749Z 0918/1018 06010KT P6SM SKC
FM092100 20011KT P6SM SKC
FM101500 08010KT P6SM FEW250

Example: see airport list